sensor_id;sensor_type;location;lat;lon;timestamp;P1;durP1;ratioP1;P2;durP2;ratioP2
74541;SDS011;63015;45.378;20.360;2023-12-22T00:00:41;23.85;;;10.13;;
74541;SDS011;63015;45.378;20.360;2023-12-22T00:02:42;22.25;;;10.07;;
74541;SDS011;63015;45.378;20.360;2023-12-22T00:04:42;24.67;;;11.30;;
74541;SDS011;63015;45.378;20.360;2023-12-22T00:06:43;29.13;;;12.35;;
74541;SDS011;63015;45.378;20.360;2023-12-22T00:08:43;26.58;;;12.70;;
74541;SDS011;63015;45.378;20.360;2023-12-22T00:10:44;24.52;;;11.10;;
74541;SDS011;63015;45.378;20.360;2023-12-22T00:12:44;30.17;;;13.68;;
74541;SDS011;63015;45.378;20.360;2023-12-22T00:14:45;26.17;;;12.40;;
74541;SDS011;63015;45.378;20.360;2023-12-22T00:16:45;31.67;;;12.80;;
74541;SDS011;63015;45.378;20.360;2023-12-22T00:18:46;31.33;;;13.98;;
74541;SDS011;63015;45.378;20.360;2023-12-22T00:20:46;28.48;;;12.38;;
74541;SDS011;63015;45.378;20.360;2023-12-22T00:22:47;30.13;;;13.43;;
74541;SDS011;63015;45.378;20.360;2023-12-22T00:24:47;29.45;;;13.70;;
74541;SDS011;63015;45.378;20.360;2023-12-22T00:26:47;25.00;;;11.45;;
74541;SDS011;63015;45.378;20.360;2023-12-22T00:28:48;24.40;;;11.98;;
74541;SDS011;63015;45.378;20.360;2023-12-22T00:30:49;36.75;;;13.88;;
74541;SDS011;63015;45.378;20.360;2023-12-22T00:32:49;35.78;;;14.73;;
74541;SDS011;63015;45.378;20.360;2023-12-22T00:34:50;27.25;;;14.55;;
74541;SDS011;63015;45.378;20.360;2023-12-22T00:36:50;29.90;;;13.48;;
74541;SDS011;63015;45.378;20.360;2023-12-22T00:38:52;25.23;;;11.45;;
74541;SDS011;63015;45.378;20.360;2023-12-22T00:40:52;21.63;;;10.75;;
74541;SDS011;63015;45.378;20.360;2023-12-22T00:42:53;21.20;;;10.18;;
74541;SDS011;63015;45.378;20.360;2023-12-22T00:44:53;22.67;;;11.52;;
74541;SDS011;63015;45.378;20.360;2023-12-22T00:46:55;25.70;;;11.90;;
74541;SDS011;63015;45.378;20.360;2023-12-22T00:48:56;24.92;;;12.07;;
74541;SDS011;63015;45.378;20.360;2023-12-22T00:50:56;30.83;;;13.75;;
74541;SDS011;63015;45.378;20.360;2023-12-22T00:52:57;29.98;;;12.77;;
74541;SDS011;63015;45.378;20.360;2023-12-22T00:54:57;29.98;;;13.02;;
74541;SDS011;63015;45.378;20.360;2023-12-22T00:56:58;22.08;;;9.65;;
74541;SDS011;63015;45.378;20.360;2023-12-22T00:58:59;23.75;;;10.25;;
74541;SDS011;63015;45.378;20.360;2023-12-22T01:01:00;23.08;;;10.20;;
74541;SDS011;63015;45.378;20.360;2023-12-22T01:03:00;21.75;;;9.77;;
74541;SDS011;63015;45.378;20.360;2023-12-22T01:05:01;21.77;;;10.70;;
74541;SDS011;63015;45.378;20.360;2023-12-22T01:07:01;26.55;;;12.20;;
74541;SDS011;63015;45.378;20.360;2023-12-22T01:09:02;24.30;;;11.15;;
74541;SDS011;63015;45.378;20.360;2023-12-22T01:11:03;27.05;;;12.80;;
74541;SDS011;63015;45.378;20.360;2023-12-22T01:13:03;23.55;;;11.52;;
74541;SDS011;63015;45.378;20.360;2023-12-22T01:15:04;27.90;;;12.40;;
74541;SDS011;63015;45.378;20.360;2023-12-22T01:17:06;22.98;;;10.35;;
74541;SDS011;63015;45.378;20.360;2023-12-22T01:19:07;26.50;;;11.48;;
74541;SDS011;63015;45.378;20.360;2023-12-22T01:21:08;28.75;;;13.73;;
74541;SDS011;63015;45.378;20.360;2023-12-22T01:23:08;25.27;;;11.77;;
74541;SDS011;63015;45.378;20.360;2023-12-22T01:25:09;30.20;;;12.30;;
74541;SDS011;63015;45.378;20.360;2023-12-22T01:27:09;21.58;;;9.73;;
74541;SDS011;63015;45.378;20.360;2023-12-22T01:29:10;21.50;;;10.85;;
74541;SDS011;63015;45.378;20.360;2023-12-22T01:31:10;18.38;;;8.20;;
74541;SDS011;63015;45.378;20.360;2023-12-22T01:33:11;21.25;;;10.10;;
74541;SDS011;63015;45.378;20.360;2023-12-22T01:35:12;33.20;;;13.10;;
74541;SDS011;63015;45.378;20.360;2023-12-22T01:37:12;24.58;;;11.10;;
74541;SDS011;63015;45.378;20.360;2023-12-22T01:39:13;40.15;;;14.13;;
74541;SDS011;63015;45.378;20.360;2023-12-22T01:41:14;53.25;;;17.25;;
74541;SDS011;63015;45.378;20.360;2023-12-22T01:43:15;34.88;;;12.43;;
74541;SDS011;63015;45.378;20.360;2023-12-22T01:45:17;38.05;;;12.40;;
74541;SDS011;63015;45.378;20.360;2023-12-22T01:47:17;24.63;;;10.40;;
74541;SDS011;63015;45.378;20.360;2023-12-22T01:49:18;20.88;;;8.15;;
74541;SDS011;63015;45.378;20.360;2023-12-22T01:51:21;27.40;;;11.23;;
74541;SDS011;63015;45.378;20.360;2023-12-22T01:53:22;17.30;;;7.88;;
74541;SDS011;63015;45.378;20.360;2023-12-22T01:55:24;23.98;;;10.15;;
74541;SDS011;63015;45.378;20.360;2023-12-22T01:57:25;19.42;;;9.52;;
74541;SDS011;63015;45.378;20.360;2023-12-22T01:59:25;23.90;;;10.88;;
74541;SDS011;63015;45.378;20.360;2023-12-22T02:01:27;21.20;;;8.85;;
74541;SDS011;63015;45.378;20.360;2023-12-22T02:03:28;16.92;;;8.50;;
74541;SDS011;63015;45.378;20.360;2023-12-22T02:05:29;23.10;;;11.80;;
74541;SDS011;63015;45.378;20.360;2023-12-22T02:07:29;19.65;;;8.38;;
74541;SDS011;63015;45.378;20.360;2023-12-22T02:09:30;19.13;;;9.10;;
74541;SDS011;63015;45.378;20.360;2023-12-22T02:11:32;20.52;;;9.63;;
74541;SDS011;63015;45.378;20.360;2023-12-22T02:13:33;17.77;;;8.45;;
74541;SDS011;63015;45.378;20.360;2023-12-22T02:15:33;22.60;;;9.60;;
74541;SDS011;63015;45.378;20.360;2023-12-22T02:20:14;22.30;;;9.55;;
74541;SDS011;63015;45.378;20.360;2023-12-22T02:22:14;20.02;;;9.98;;
74541;SDS011;63015;45.378;20.360;2023-12-22T02:24:15;21.33;;;9.35;;
74541;SDS011;63015;45.378;20.360;2023-12-22T02:26:27;19.02;;;9.32;;
74541;SDS011;63015;45.378;20.360;2023-12-22T02:28:32;20.85;;;9.75;;
74541;SDS011;63015;45.378;20.360;2023-12-22T02:32:46;18.73;;;8.43;;
74541;SDS011;63015;45.378;20.360;2023-12-22T02:34:49;15.07;;;7.00;;
74541;SDS011;63015;45.378;20.360;2023-12-22T02:36:52;23.33;;;9.85;;
74541;SDS011;63015;45.378;20.360;2023-12-22T02:38:54;25.90;;;9.90;;
74541;SDS011;63015;45.378;20.360;2023-12-22T02:40:55;24.83;;;10.07;;
74541;SDS011;63015;45.378;20.360;2023-12-22T02:42:57;24.65;;;11.07;;
74541;SDS011;63015;45.378;20.360;2023-12-22T02:44:58;21.23;;;10.38;;
74541;SDS011;63015;45.378;20.360;2023-12-22T02:47:00;27.92;;;11.98;;
74541;SDS011;63015;45.378;20.360;2023-12-22T02:49:01;24.50;;;10.98;;
74541;SDS011;63015;45.378;20.360;2023-12-22T02:51:01;24.20;;;10.95;;
74541;SDS011;63015;45.378;20.360;2023-12-22T02:53:02;20.70;;;10.88;;
74541;SDS011;63015;45.378;20.360;2023-12-22T02:55:03;27.38;;;11.50;;
74541;SDS011;63015;45.378;20.360;2023-12-22T02:57:04;22.40;;;9.98;;
74541;SDS011;63015;45.378;20.360;2023-12-22T02:59:04;21.38;;;9.98;;
74541;SDS011;63015;45.378;20.360;2023-12-22T03:01:05;19.75;;;9.25;;
74541;SDS011;63015;45.378;20.360;2023-12-22T03:03:06;9.93;;;4.50;;
74541;SDS011;63015;45.378;20.360;2023-12-22T03:05:07;9.40;;;4.07;;
74541;SDS011;63015;45.378;20.360;2023-12-22T03:07:08;6.50;;;2.67;;
74541;SDS011;63015;45.378;20.360;2023-12-22T03:09:09;6.93;;;3.28;;
74541;SDS011;63015;45.378;20.360;2023-12-22T03:11:10;12.15;;;4.30;;
74541;SDS011;63015;45.378;20.360;2023-12-22T03:13:10;9.70;;;4.00;;
74541;SDS011;63015;45.378;20.360;2023-12-22T03:15:11;5.65;;;2.50;;
74541;SDS011;63015;45.378;20.360;2023-12-22T03:17:17;19.95;;;4.60;;
74541;SDS011;63015;45.378;20.360;2023-12-22T03:19:18;8.23;;;4.05;;
74541;SDS011;63015;45.378;20.360;2023-12-22T03:21:18;8.23;;;3.85;;
74541;SDS011;63015;45.378;20.360;2023-12-22T03:23:19;21.63;;;3.97;;
74541;SDS011;63015;45.378;20.360;2023-12-22T03:25:19;8.75;;;4.43;;
74541;SDS011;63015;45.378;20.360;2023-12-22T03:27:20;11.23;;;5.68;;
74541;SDS011;63015;45.378;20.360;2023-12-22T03:29:21;8.13;;;5.18;;
74541;SDS011;63015;45.378;20.360;2023-12-22T03:31:22;8.65;;;4.07;;
74541;SDS011;63015;45.378;20.360;2023-12-22T03:33:23;10.05;;;4.78;;
74541;SDS011;63015;45.378;20.360;2023-12-22T03:35:23;11.82;;;6.15;;
74541;SDS011;63015;45.378;20.360;2023-12-22T03:37:24;11.43;;;5.93;;
74541;SDS011;63015;45.378;20.360;2023-12-22T03:39:24;9.00;;;4.25;;
74541;SDS011;63015;45.378;20.360;2023-12-22T03:41:27;10.68;;;6.13;;
74541;SDS011;63015;45.378;20.360;2023-12-22T03:43:29;9.15;;;4.72;;
74541;SDS011;63015;45.378;20.360;2023-12-22T03:45:31;8.90;;;5.18;;
74541;SDS011;63015;45.378;20.360;2023-12-22T03:47:32;12.52;;;5.28;;
74541;SDS011;63015;45.378;20.360;2023-12-22T03:49:33;9.63;;;4.65;;
74541;SDS011;63015;45.378;20.360;2023-12-22T03:51:33;12.55;;;5.40;;
74541;SDS011;63015;45.378;20.360;2023-12-22T03:53:34;15.65;;;6.18;;
74541;SDS011;63015;45.378;20.360;2023-12-22T03:55:34;11.93;;;5.95;;
74541;SDS011;63015;45.378;20.360;2023-12-22T03:57:35;14.18;;;6.68;;
74541;SDS011;63015;45.378;20.360;2023-12-22T03:59:35;14.50;;;6.20;;
74541;SDS011;63015;45.378;20.360;2023-12-22T04:01:36;12.35;;;5.55;;
74541;SDS011;63015;45.378;20.360;2023-12-22T04:03:36;10.82;;;5.47;;
74541;SDS011;63015;45.378;20.360;2023-12-22T04:05:37;14.38;;;5.20;;
74541;SDS011;63015;45.378;20.360;2023-12-22T04:07:37;10.60;;;5.68;;
74541;SDS011;63015;45.378;20.360;2023-12-22T04:09:38;11.80;;;5.78;;
74541;SDS011;63015;45.378;20.360;2023-12-22T04:13:42;10.27;;;5.10;;
74541;SDS011;63015;45.378;20.360;2023-12-22T04:15:43;11.98;;;5.50;;
74541;SDS011;63015;45.378;20.360;2023-12-22T04:17:44;11.77;;;6.03;;
74541;SDS011;63015;45.378;20.360;2023-12-22T04:19:45;12.07;;;5.35;;
74541;SDS011;63015;45.378;20.360;2023-12-22T04:21:45;14.20;;;6.10;;
74541;SDS011;63015;45.378;20.360;2023-12-22T04:23:46;13.63;;;6.20;;
74541;SDS011;63015;45.378;20.360;2023-12-22T04:25:46;9.80;;;4.10;;
74541;SDS011;63015;45.378;20.360;2023-12-22T04:27:47;13.82;;;6.55;;
74541;SDS011;63015;45.378;20.360;2023-12-22T04:29:48;10.27;;;5.00;;
74541;SDS011;63015;45.378;20.360;2023-12-22T04:31:49;12.93;;;5.68;;
74541;SDS011;63015;45.378;20.360;2023-12-22T04:33:50;10.63;;;6.15;;
74541;SDS011;63015;45.378;20.360;2023-12-22T04:35:51;12.93;;;6.10;;
74541;SDS011;63015;45.378;20.360;2023-12-22T04:37:51;12.85;;;4.85;;
74541;SDS011;63015;45.378;20.360;2023-12-22T04:39:52;13.00;;;5.68;;
74541;SDS011;63015;45.378;20.360;2023-12-22T04:41:53;11.60;;;4.90;;
74541;SDS011;63015;45.378;20.360;2023-12-22T04:43:53;9.32;;;4.05;;
74541;SDS011;63015;45.378;20.360;2023-12-22T04:45:54;11.52;;;5.28;;
74541;SDS011;63015;45.378;20.360;2023-12-22T04:47:54;10.05;;;5.45;;
74541;SDS011;63015;45.378;20.360;2023-12-22T04:49:55;11.38;;;6.28;;
74541;SDS011;63015;45.378;20.360;2023-12-22T04:51:55;12.48;;;5.68;;
74541;SDS011;63015;45.378;20.360;2023-12-22T04:53:56;12.93;;;5.72;;
74541;SDS011;63015;45.378;20.360;2023-12-22T04:55:56;11.82;;;5.53;;
74541;SDS011;63015;45.378;20.360;2023-12-22T04:57:58;12.05;;;5.68;;
74541;SDS011;63015;45.378;20.360;2023-12-22T04:59:59;12.00;;;6.80;;
74541;SDS011;63015;45.378;20.360;2023-12-22T05:02:00;11.63;;;5.40;;
74541;SDS011;63015;45.378;20.360;2023-12-22T05:04:00;10.90;;;5.47;;
74541;SDS011;63015;45.378;20.360;2023-12-22T05:06:02;10.98;;;6.00;;
74541;SDS011;63015;45.378;20.360;2023-12-22T05:08:03;12.75;;;5.35;;
74541;SDS011;63015;45.378;20.360;2023-12-22T05:10:03;10.30;;;5.28;;
74541;SDS011;63015;45.378;20.360;2023-12-22T05:12:04;10.88;;;5.63;;
74541;SDS011;63015;45.378;20.360;2023-12-22T05:14:05;14.38;;;6.15;;
74541;SDS011;63015;45.378;20.360;2023-12-22T05:16:06;10.77;;;5.25;;
74541;SDS011;63015;45.378;20.360;2023-12-22T05:18:08;10.77;;;5.05;;
74541;SDS011;63015;45.378;20.360;2023-12-22T05:20:08;15.05;;;7.45;;
74541;SDS011;63015;45.378;20.360;2023-12-22T05:22:09;11.02;;;5.13;;
74541;SDS011;63015;45.378;20.360;2023-12-22T05:24:10;13.90;;;4.90;;
74541;SDS011;63015;45.378;20.360;2023-12-22T05:26:15;8.43;;;4.30;;
74541;SDS011;63015;45.378;20.360;2023-12-22T05:28:17;10.10;;;5.18;;
74541;SDS011;63015;45.378;20.360;2023-12-22T05:30:18;10.52;;;4.88;;
74541;SDS011;63015;45.378;20.360;2023-12-22T05:32:18;6.95;;;3.35;;
74541;SDS011;63015;45.378;20.360;2023-12-22T05:34:19;8.35;;;4.38;;
74541;SDS011;63015;45.378;20.360;2023-12-22T05:36:20;8.95;;;4.00;;
74541;SDS011;63015;45.378;20.360;2023-12-22T05:38:21;9.18;;;4.75;;
74541;SDS011;63015;45.378;20.360;2023-12-22T05:40:21;9.38;;;4.88;;
74541;SDS011;63015;45.378;20.360;2023-12-22T05:42:22;9.00;;;3.92;;
74541;SDS011;63015;45.378;20.360;2023-12-22T05:44:22;6.88;;;3.63;;
74541;SDS011;63015;45.378;20.360;2023-12-22T05:46:24;10.68;;;4.97;;
74541;SDS011;63015;45.378;20.360;2023-12-22T05:48:25;6.60;;;3.30;;
74541;SDS011;63015;45.378;20.360;2023-12-22T05:50:27;12.50;;;4.38;;
74541;SDS011;63015;45.378;20.360;2023-12-22T05:52:28;7.78;;;4.03;;
74541;SDS011;63015;45.378;20.360;2023-12-22T05:54:29;10.23;;;3.72;;
74541;SDS011;63015;45.378;20.360;2023-12-22T05:56:30;7.18;;;3.47;;
74541;SDS011;63015;45.378;20.360;2023-12-22T05:58:30;8.68;;;4.15;;
74541;SDS011;63015;45.378;20.360;2023-12-22T06:00:30;7.47;;;3.67;;
74541;SDS011;63015;45.378;20.360;2023-12-22T06:02:31;9.07;;;4.32;;
74541;SDS011;63015;45.378;20.360;2023-12-22T06:04:32;10.82;;;4.20;;
74541;SDS011;63015;45.378;20.360;2023-12-22T06:06:32;7.93;;;3.75;;
74541;SDS011;63015;45.378;20.360;2023-12-22T06:08:32;9.48;;;4.05;;
74541;SDS011;63015;45.378;20.360;2023-12-22T06:10:33;7.57;;;3.75;;
74541;SDS011;63015;45.378;20.360;2023-12-22T06:12:34;9.48;;;4.20;;
74541;SDS011;63015;45.378;20.360;2023-12-22T06:14:34;7.25;;;3.63;;
74541;SDS011;63015;45.378;20.360;2023-12-22T06:16:35;6.18;;;2.70;;
74541;SDS011;63015;45.378;20.360;2023-12-22T06:18:35;14.68;;;2.80;;
74541;SDS011;63015;45.378;20.360;2023-12-22T06:20:36;9.23;;;3.63;;
74541;SDS011;63015;45.378;20.360;2023-12-22T06:22:37;7.40;;;3.83;;
74541;SDS011;63015;45.378;20.360;2023-12-22T06:24:38;5.95;;;2.65;;
74541;SDS011;63015;45.378;20.360;2023-12-22T06:26:39;6.82;;;2.78;;
74541;SDS011;63015;45.378;20.360;2023-12-22T06:28:40;5.63;;;2.42;;
74541;SDS011;63015;45.378;20.360;2023-12-22T06:30:41;7.70;;;2.55;;
74541;SDS011;63015;45.378;20.360;2023-12-22T06:32:43;4.07;;;1.83;;
74541;SDS011;63015;45.378;20.360;2023-12-22T06:34:43;3.30;;;1.30;;
74541;SDS011;63015;45.378;20.360;2023-12-22T06:36:44;6.05;;;2.45;;
74541;SDS011;63015;45.378;20.360;2023-12-22T06:38:46;4.32;;;2.25;;
74541;SDS011;63015;45.378;20.360;2023-12-22T06:40:47;5.00;;;2.42;;
74541;SDS011;63015;45.378;20.360;2023-12-22T06:42:48;7.35;;;2.53;;
74541;SDS011;63015;45.378;20.360;2023-12-22T06:44:48;5.78;;;1.80;;
74541;SDS011;63015;45.378;20.360;2023-12-22T06:46:49;2.42;;;0.98;;
74541;SDS011;63015;45.378;20.360;2023-12-22T06:48:49;5.07;;;1.92;;
74541;SDS011;63015;45.378;20.360;2023-12-22T06:50:50;3.63;;;1.27;;
74541;SDS011;63015;45.378;20.360;2023-12-22T06:52:51;5.25;;;1.83;;
74541;SDS011;63015;45.378;20.360;2023-12-22T06:54:51;3.10;;;1.23;;
74541;SDS011;63015;45.378;20.360;2023-12-22T06:56:52;4.47;;;1.58;;
74541;SDS011;63015;45.378;20.360;2023-12-22T06:58:53;3.03;;;0.95;;
74541;SDS011;63015;45.378;20.360;2023-12-22T07:00:55;2.33;;;0.82;;
74541;SDS011;63015;45.378;20.360;2023-12-22T07:02:56;3.30;;;1.25;;
74541;SDS011;63015;45.378;20.360;2023-12-22T07:07:09;3.80;;;1.60;;
74541;SDS011;63015;45.378;20.360;2023-12-22T07:11:19;2.72;;;0.95;;
74541;SDS011;63015;45.378;20.360;2023-12-22T07:13:20;4.38;;;1.00;;
74541;SDS011;63015;45.378;20.360;2023-12-22T07:15:21;2.60;;;1.02;;
74541;SDS011;63015;45.378;20.360;2023-12-22T07:17:22;3.60;;;1.15;;
74541;SDS011;63015;45.378;20.360;2023-12-22T07:19:22;4.20;;;1.50;;
74541;SDS011;63015;45.378;20.360;2023-12-22T07:21:23;4.78;;;1.67;;
74541;SDS011;63015;45.378;20.360;2023-12-22T07:23:23;4.00;;;1.40;;
74541;SDS011;63015;45.378;20.360;2023-12-22T07:25:24;5.07;;;1.38;;
74541;SDS011;63015;45.378;20.360;2023-12-22T07:27:25;5.75;;;1.50;;
74541;SDS011;63015;45.378;20.360;2023-12-22T07:29:26;4.95;;;1.48;;
74541;SDS011;63015;45.378;20.360;2023-12-22T07:31:26;3.47;;;1.30;;
74541;SDS011;63015;45.378;20.360;2023-12-22T07:33:27;3.53;;;1.38;;
74541;SDS011;63015;45.378;20.360;2023-12-22T07:35:27;4.65;;;1.63;;
74541;SDS011;63015;45.378;20.360;2023-12-22T07:37:29;4.00;;;1.58;;
74541;SDS011;63015;45.378;20.360;2023-12-22T07:39:29;3.70;;;1.38;;
74541;SDS011;63015;45.378;20.360;2023-12-22T07:41:30;3.03;;;0.95;;
74541;SDS011;63015;45.378;20.360;2023-12-22T07:43:30;4.10;;;1.27;;
74541;SDS011;63015;45.378;20.360;2023-12-22T07:45:31;5.10;;;1.33;;
74541;SDS011;63015;45.378;20.360;2023-12-22T07:47:33;3.90;;;1.48;;
74541;SDS011;63015;45.378;20.360;2023-12-22T07:49:33;4.75;;;1.50;;
74541;SDS011;63015;45.378;20.360;2023-12-22T07:51:34;6.55;;;1.50;;
74541;SDS011;63015;45.378;20.360;2023-12-22T07:53:34;4.45;;;1.42;;
74541;SDS011;63015;45.378;20.360;2023-12-22T07:55:35;3.30;;;1.02;;
74541;SDS011;63015;45.378;20.360;2023-12-22T07:57:37;3.22;;;1.08;;
74541;SDS011;63015;45.378;20.360;2023-12-22T07:59:38;3.22;;;0.98;;
74541;SDS011;63015;45.378;20.360;2023-12-22T08:01:39;3.13;;;1.13;;
74541;SDS011;63015;45.378;20.360;2023-12-22T08:03:40;3.28;;;0.85;;
74541;SDS011;63015;45.378;20.360;2023-12-22T08:05:40;5.00;;;0.85;;
74541;SDS011;63015;45.378;20.360;2023-12-22T08:07:41;2.88;;;0.90;;
74541;SDS011;63015;45.378;20.360;2023-12-22T08:09:41;4.53;;;1.73;;
74541;SDS011;63015;45.378;20.360;2023-12-22T08:11:48;4.07;;;1.05;;
74541;SDS011;63015;45.378;20.360;2023-12-22T08:13:52;3.67;;;1.33;;
74541;SDS011;63015;45.378;20.360;2023-12-22T08:15:53;3.65;;;1.15;;
74541;SDS011;63015;45.378;20.360;2023-12-22T08:17:54;3.08;;;0.93;;
74541;SDS011;63015;45.378;20.360;2023-12-22T08:19:55;3.00;;;0.85;;
74541;SDS011;63015;45.378;20.360;2023-12-22T08:21:56;2.30;;;0.80;;
74541;SDS011;63015;45.378;20.360;2023-12-22T08:23:58;2.72;;;0.63;;
74541;SDS011;63015;45.378;20.360;2023-12-22T08:25:59;3.20;;;0.60;;
74541;SDS011;63015;45.378;20.360;2023-12-22T08:27:59;3.55;;;1.13;;
74541;SDS011;63015;45.378;20.360;2023-12-22T08:30:01;2.63;;;0.88;;
74541;SDS011;63015;45.378;20.360;2023-12-22T08:32:03;2.20;;;0.63;;
74541;SDS011;63015;45.378;20.360;2023-12-22T08:34:04;2.88;;;0.70;;
74541;SDS011;63015;45.378;20.360;2023-12-22T08:36:05;3.10;;;0.85;;
74541;SDS011;63015;45.378;20.360;2023-12-22T08:38:06;3.15;;;0.63;;
74541;SDS011;63015;45.378;20.360;2023-12-22T08:40:07;2.40;;;0.50;;
74541;SDS011;63015;45.378;20.360;2023-12-22T08:42:08;3.88;;;0.88;;
74541;SDS011;63015;45.378;20.360;2023-12-22T08:44:08;4.50;;;0.40;;
74541;SDS011;63015;45.378;20.360;2023-12-22T08:46:09;3.13;;;0.65;;
74541;SDS011;63015;45.378;20.360;2023-12-22T08:48:11;2.95;;;0.80;;
74541;SDS011;63015;45.378;20.360;2023-12-22T08:50:12;3.45;;;0.63;;
74541;SDS011;63015;45.378;20.360;2023-12-22T08:52:13;2.85;;;0.70;;
74541;SDS011;63015;45.378;20.360;2023-12-22T08:54:13;3.88;;;0.40;;
74541;SDS011;63015;45.378;20.360;2023-12-22T08:56:15;2.13;;;0.40;;
74541;SDS011;63015;45.378;20.360;2023-12-22T08:58:17;2.53;;;0.80;;
74541;SDS011;63015;45.378;20.360;2023-12-22T09:00:17;3.05;;;0.75;;
74541;SDS011;63015;45.378;20.360;2023-12-22T09:02:18;2.88;;;0.43;;
74541;SDS011;63015;45.378;20.360;2023-12-22T09:04:19;4.07;;;0.85;;
74541;SDS011;63015;45.378;20.360;2023-12-22T09:06:23;2.35;;;0.57;;
74541;SDS011;63015;45.378;20.360;2023-12-22T09:08:25;3.78;;;0.70;;
74541;SDS011;63015;45.378;20.360;2023-12-22T09:10:26;3.95;;;0.90;;
74541;SDS011;63015;45.378;20.360;2023-12-22T09:12:27;2.97;;;0.90;;
74541;SDS011;63015;45.378;20.360;2023-12-22T09:14:28;1.27;;;0.25;;
74541;SDS011;63015;45.378;20.360;2023-12-22T09:16:29;3.08;;;0.63;;
74541;SDS011;63015;45.378;20.360;2023-12-22T09:18:29;3.97;;;0.90;;
74541;SDS011;63015;45.378;20.360;2023-12-22T09:20:30;3.25;;;0.73;;
74541;SDS011;63015;45.378;20.360;2023-12-22T09:22:31;2.70;;;0.70;;
74541;SDS011;63015;45.378;20.360;2023-12-22T09:24:31;3.75;;;1.10;;
74541;SDS011;63015;45.378;20.360;2023-12-22T09:26:32;2.70;;;0.80;;
74541;SDS011;63015;45.378;20.360;2023-12-22T09:28:33;4.55;;;1.38;;
74541;SDS011;63015;45.378;20.360;2023-12-22T09:30:34;6.75;;;1.23;;
74541;SDS011;63015;45.378;20.360;2023-12-22T09:32:34;3.92;;;1.10;;
74541;SDS011;63015;45.378;20.360;2023-12-22T09:34:35;4.80;;;1.63;;
74541;SDS011;63015;45.378;20.360;2023-12-22T09:36:35;4.57;;;1.33;;
74541;SDS011;63015;45.378;20.360;2023-12-22T09:38:36;6.03;;;1.92;;
74541;SDS011;63015;45.378;20.360;2023-12-22T09:40:36;8.68;;;2.40;;
74541;SDS011;63015;45.378;20.360;2023-12-22T09:42:40;5.43;;;2.20;;
74541;SDS011;63015;45.378;20.360;2023-12-22T09:44:43;6.43;;;2.75;;
74541;SDS011;63015;45.378;20.360;2023-12-22T09:46:44;7.93;;;3.00;;
74541;SDS011;63015;45.378;20.360;2023-12-22T09:48:46;8.35;;;3.10;;
74541;SDS011;63015;45.378;20.360;2023-12-22T09:50:47;12.85;;;3.30;;
74541;SDS011;63015;45.378;20.360;2023-12-22T09:52:49;7.32;;;2.53;;
74541;SDS011;63015;45.378;20.360;2023-12-22T09:54:50;6.57;;;2.38;;
74541;SDS011;63015;45.378;20.360;2023-12-22T09:56:54;8.20;;;2.92;;
74541;SDS011;63015;45.378;20.360;2023-12-22T09:58:55;7.30;;;3.20;;
74541;SDS011;63015;45.378;20.360;2023-12-22T10:00:56;5.65;;;2.10;;
74541;SDS011;63015;45.378;20.360;2023-12-22T10:02:58;7.10;;;1.98;;
74541;SDS011;63015;45.378;20.360;2023-12-22T10:04:58;6.18;;;1.92;;
74541;SDS011;63015;45.378;20.360;2023-12-22T10:06:59;8.13;;;1.90;;
74541;SDS011;63015;45.378;20.360;2023-12-22T10:09:04;8.15;;;2.60;;
74541;SDS011;63015;45.378;20.360;2023-12-22T10:11:07;8.68;;;3.78;;
74541;SDS011;63015;45.378;20.360;2023-12-22T10:13:09;5.35;;;2.10;;
74541;SDS011;63015;45.378;20.360;2023-12-22T10:15:10;5.18;;;1.30;;
74541;SDS011;63015;45.378;20.360;2023-12-22T10:17:13;6.18;;;1.80;;
74541;SDS011;63015;45.378;20.360;2023-12-22T10:19:14;4.78;;;1.23;;
74541;SDS011;63015;45.378;20.360;2023-12-22T10:21:15;4.30;;;1.75;;
74541;SDS011;63015;45.378;20.360;2023-12-22T10:23:16;5.20;;;1.35;;
74541;SDS011;63015;45.378;20.360;2023-12-22T10:25:19;5.97;;;1.70;;
74541;SDS011;63015;45.378;20.360;2023-12-22T10:27:22;3.83;;;1.42;;
74541;SDS011;63015;45.378;20.360;2023-12-22T10:29:22;5.25;;;1.42;;
74541;SDS011;63015;45.378;20.360;2023-12-22T10:31:24;4.97;;;1.90;;
74541;SDS011;63015;45.378;20.360;2023-12-22T10:33:25;7.15;;;2.08;;
74541;SDS011;63015;45.378;20.360;2023-12-22T10:35:26;7.35;;;2.53;;
74541;SDS011;63015;45.378;20.360;2023-12-22T10:37:27;6.30;;;2.85;;
74541;SDS011;63015;45.378;20.360;2023-12-22T10:39:31;7.68;;;3.03;;
74541;SDS011;63015;45.378;20.360;2023-12-22T10:41:32;10.32;;;3.35;;
74541;SDS011;63015;45.378;20.360;2023-12-22T10:43:39;8.07;;;3.22;;
74541;SDS011;63015;45.378;20.360;2023-12-22T10:45:40;4.35;;;1.55;;
74541;SDS011;63015;45.378;20.360;2023-12-22T10:47:41;4.82;;;2.20;;
74541;SDS011;63015;45.378;20.360;2023-12-22T10:49:41;7.18;;;2.30;;
74541;SDS011;63015;45.378;20.360;2023-12-22T10:51:44;5.75;;;1.73;;
74541;SDS011;63015;45.378;20.360;2023-12-22T10:53:44;5.72;;;2.08;;
74541;SDS011;63015;45.378;20.360;2023-12-22T10:55:46;7.60;;;2.08;;
74541;SDS011;63015;45.378;20.360;2023-12-22T10:57:47;29.35;;;6.63;;
74541;SDS011;63015;45.378;20.360;2023-12-22T10:59:47;17.67;;;4.97;;
74541;SDS011;63015;45.378;20.360;2023-12-22T11:01:48;12.50;;;3.40;;
74541;SDS011;63015;45.378;20.360;2023-12-22T11:03:52;4.78;;;1.40;;
74541;SDS011;63015;45.378;20.360;2023-12-22T11:05:53;4.80;;;1.17;;
74541;SDS011;63015;45.378;20.360;2023-12-22T11:07:55;6.10;;;1.67;;
74541;SDS011;63015;45.378;20.360;2023-12-22T11:12:06;6.05;;;0.70;;
74541;SDS011;63015;45.378;20.360;2023-12-22T11:14:07;4.88;;;0.68;;
74541;SDS011;63015;45.378;20.360;2023-12-22T11:16:08;3.40;;;0.70;;
74541;SDS011;63015;45.378;20.360;2023-12-22T11:18:10;1.35;;;0.35;;
74541;SDS011;63015;45.378;20.360;2023-12-22T11:20:14;2.65;;;0.80;;
74541;SDS011;63015;45.378;20.360;2023-12-22T11:22:16;4.05;;;0.93;;
74541;SDS011;63015;45.378;20.360;2023-12-22T11:24:18;6.97;;;1.20;;
74541;SDS011;63015;45.378;20.360;2023-12-22T11:26:20;5.13;;;1.63;;
74541;SDS011;63015;45.378;20.360;2023-12-22T11:28:22;3.70;;;0.80;;
74541;SDS011;63015;45.378;20.360;2023-12-22T11:30:24;1.98;;;0.77;;
74541;SDS011;63015;45.378;20.360;2023-12-22T11:32:25;3.58;;;0.95;;
74541;SDS011;63015;45.378;20.360;2023-12-22T11:34:28;1.45;;;0.47;;
74541;SDS011;63015;45.378;20.360;2023-12-22T11:36:32;4.93;;;0.77;;
74541;SDS011;63015;45.378;20.360;2023-12-22T11:38:34;3.90;;;0.93;;
74541;SDS011;63015;45.378;20.360;2023-12-22T11:40:36;3.88;;;1.00;;
74541;SDS011;63015;45.378;20.360;2023-12-22T11:42:38;2.25;;;0.60;;
74541;SDS011;63015;45.378;20.360;2023-12-22T11:44:43;4.80;;;0.80;;
74541;SDS011;63015;45.378;20.360;2023-12-22T11:46:44;3.60;;;0.70;;
74541;SDS011;63015;45.378;20.360;2023-12-22T11:48:49;3.05;;;0.73;;
74541;SDS011;63015;45.378;20.360;2023-12-22T11:50:50;3.30;;;0.65;;
74541;SDS011;63015;45.378;20.360;2023-12-22T11:52:53;3.67;;;0.77;;
74541;SDS011;63015;45.378;20.360;2023-12-22T11:54:54;3.95;;;0.80;;
74541;SDS011;63015;45.378;20.360;2023-12-22T11:56:59;2.40;;;0.45;;
74541;SDS011;63015;45.378;20.360;2023-12-22T11:58:59;4.68;;;1.23;;
74541;SDS011;63015;45.378;20.360;2023-12-22T12:01:02;12.50;;;3.05;;
74541;SDS011;63015;45.378;20.360;2023-12-22T12:03:07;2.72;;;0.80;;
74541;SDS011;63015;45.378;20.360;2023-12-22T12:05:09;4.85;;;1.20;;